Time;durP1;ratioP1;P1;durP2;ratioP2;P2;SDS_P1;SDS_P2;PMS_P1;PMS_P2;Temp;Humidity;BMP_temperature;BMP_pressure;BME280_temperature;BME280_humidity;BME280_pressure;Samples;Min_cycle;Max_cycle;Signal;HPM_P1;HPM_P2
2020/12/30 00:00:28;;;;;;;5.95;3.47;;;5.10;99.90;;;;;;5018923;28;20475;-76
2020/12/30 00:02:53;;;;;;;4.00;3.45;;;5.10;99.90;;;;;;5018777;28;20049;-76
2020/12/30 00:05:20;;;;;;;3.90;2.75;;;5.10;99.90;;;;;;5018934;28;20068;-77
2020/12/30 00:07:45;;;;;;;5.30;2.95;;;5.10;99.90;;;;;;5036526;28;20112;-75
2020/12/30 00:10:14;;;;;;;5.78;3.45;;;5.10;99.90;;;;;;5036558;28;20060;-77
2020/12/30 00:12:40;;;;;;;4.47;3.03;;;5.10;99.90;;;;;;5036400;28;20108;-75
2020/12/30 00:15:08;;;;;;;9.38;3.90;;;5.10;99.90;;;;;;5034994;28;20105;-76
2020/12/30 00:17:33;;;;;;;13.88;5.28;;;5.00;99.90;;;;;;5018529;28;20479;-76
2020/12/30 00:19:59;;;;;;;12.20;6.53;;;5.00;99.90;;;;;;5018538;28;20029;-76
2020/12/30 00:22:25;;;;;;;15.52;7.20;;;4.90;99.90;;;;;;5018455;28;20495;-76
2020/12/30 00:24:50;;;;;;;12.18;6.07;;;4.90;99.90;;;;;;5018492;28;20534;-76
2020/12/30 00:27:16;;;;;;;7.22;4.18;;;4.80;99.90;;;;;;5018465;28;20014;-76
2020/12/30 00:29:42;;;;;;;16.00;8.65;;;4.80;99.90;;;;;;5018372;28;20379;-76
2020/12/30 00:32:11;;;;;;;8.73;5.18;;;4.70;99.90;;;;;;5034748;28;20112;-75
2020/12/30 00:34:39;;;;;;;6.95;3.55;;;4.70;99.90;;;;;;5018247;28;20018;-76
2020/12/30 00:37:05;;;;;;;7.70;3.90;;;4.70;99.90;;;;;;5018192;28;20022;-76
2020/12/30 00:39:31;;;;;;;11.60;4.75;;;4.70;99.90;;;;;;5018236;28;20078;-76
2020/12/30 00:41:56;;;;;;;4.95;3.13;;;4.70;99.90;;;;;;5035786;28;20041;-76
2020/12/30 00:44:23;;;;;;;7.97;4.47;;;4.70;99.90;;;;;;5034597;28;20414;-76
2020/12/30 00:46:53;;;;;;;8.88;4.63;;;4.70;99.90;;;;;;5036335;28;20022;-76
2020/12/30 00:49:18;;;;;;;5.13;3.42;;;4.60;99.90;;;;;;5035791;28;20029;-76
2020/12/30 00:51:55;;;;;;;8.75;4.13;;;4.60;99.90;;;;;;5017970;28;20546;-76
2020/12/30 00:54:21;;;;;;;8.52;4.28;;;4.60;99.90;;;;;;5017984;28;20099;-75
2020/12/30 00:56:50;;;;;;;12.02;5.55;;;4.60;99.90;;;;;;5017830;28;20026;-75
2020/12/30 00:59:17;;;;;;;16.08;7.78;;;4.60;99.90;;;;;;5017719;28;20022;-75
2020/12/30 01:01:43;;;;;;;13.73;7.03;;;4.50;99.90;;;;;;5035434;28;20414;-77
2020/12/30 01:04:09;;;;;;;9.30;5.15;;;4.50;99.90;;;;;;5017730;28;20033;-77
2020/12/30 01:06:35;;;;;;;5.57;4.38;;;4.50;99.90;;;;;;5017773;28;20030;-76
2020/12/30 01:09:04;;;;;;;8.30;3.63;;;4.50;99.90;;;;;;5035052;28;20026;-75
2020/12/30 01:11:30;;;;;;;5.95;3.78;;;4.50;99.90;;;;;;5016866;28;20464;-76
2020/12/30 01:13:58;;;;;;;8.52;3.95;;;4.50;99.90;;;;;;5017572;28;20059;-76
2020/12/30 01:16:25;;;;;;;7.57;4.18;;;4.50;99.90;;;;;;5017564;28;20376;-76
2020/12/30 01:18:51;;;;;;;19.48;11.80;;;4.50;99.90;;;;;;5017519;28;20041;-75
2020/12/30 01:21:17;;;;;;;25.95;15.27;;;4.60;99.90;;;;;;5017629;28;20040;-76
2020/12/30 01:23:43;;;;;;;22.17;14.48;;;4.60;99.90;;;;;;5033718;28;20128;-75
2020/12/30 01:26:12;;;;;;;23.20;14.18;;;4.60;99.90;;;;;;5017419;28;20117;-77
2020/12/30 01:28:38;;;;;;;23.17;12.70;;;4.60;99.90;;;;;;5017120;28;20483;-76
2020/12/30 01:31:04;;;;;;;16.83;8.32;;;4.60;99.90;;;;;;5017184;28;20029;-76
2020/12/30 01:33:30;;;;;;;9.00;5.95;;;4.60;99.90;;;;;;5034860;28;20025;-76
2020/12/30 01:35:55;;;;;;;14.30;7.97;;;4.60;99.90;;;;;;5017162;28;20074;-76
2020/12/30 01:38:21;;;;;;;16.52;9.45;;;4.60;99.90;;;;;;5034837;28;20368;-75
2020/12/30 01:40:47;;;;;;;21.80;9.98;;;4.50;99.90;;;;;;5017076;28;20479;-75
2020/12/30 01:43:14;;;;;;;22.85;10.00;;;4.50;99.90;;;;;;5034710;28;20467;-75
2020/12/30 01:45:40;;;;;;;13.35;6.82;;;4.50;99.90;;;;;;5016870;28;20096;-76
2020/12/30 01:48:24;;;;;;;11.45;5.80;;;4.50;99.90;;;;;;5033368;28;20452;-76
2020/12/30 01:50:50;;;;;;;15.80;4.90;;;4.50;99.90;;;;;;5033417;28;20029;-75
2020/12/30 01:53:16;;;;;;;13.20;5.38;;;4.50;99.90;;;;;;5016801;28;20116;-76
2020/12/30 01:55:42;;;;;;;15.70;7.57;;;4.50;99.90;;;;;;5016688;28;20476;-76
2020/12/30 01:58:09;;;;;;;9.55;5.10;;;4.50;99.90;;;;;;5034320;28;20033;-76
2020/12/30 02:00:36;;;;;;;15.93;5.50;;;4.50;99.90;;;;;;5016593;28;20082;-76
2020/12/30 02:03:04;;;;;;;13.43;6.05;;;4.50;99.90;;;;;;5016456;28;20068;-76
2020/12/30 02:05:31;;;;;;;16.52;8.60;;;4.50;99.90;;;;;;5016499;28;20021;-76
2020/12/30 02:07:58;;;;;;;21.77;9.35;;;4.50;99.90;;;;;;5016566;28;20061;-76
2020/12/30 02:10:26;;;;;;;18.77;7.97;;;4.50;99.90;;;;;;5034310;28;20037;-76
2020/12/30 02:12:52;;;;;;;16.52;8.20;;;4.50;99.90;;;;;;5016332;28;20029;-75
2020/12/30 02:15:28;;;;;;;13.25;6.90;;;4.40;99.90;;;;;;5016352;28;20562;-75
2020/12/30 02:17:54;;;;;;;14.32;6.57;;;4.40;99.90;;;;;;5016314;28;20502;-76
2020/12/30 02:20:20;;;;;;;18.95;8.13;;;4.40;99.90;;;;;;5033448;28;20284;-75
2020/12/30 02:23:08;;;;;;;16.10;8.02;;;4.30;99.90;;;;;;5015781;28;20090;-76
2020/12/30 02:25:34;;;;;;;14.05;7.78;;;4.40;99.90;;;;;;5016264;28;20052;-75
2020/12/30 02:27:59;;;;;;;20.48;9.15;;;4.30;99.90;;;;;;5033924;28;20057;-75
2020/12/30 02:30:25;;;;;;;21.00;8.95;;;4.30;99.90;;;;;;5033790;28;20068;-76
2020/12/30 02:32:51;;;;;;;15.38;8.38;;;4.20;99.90;;;;;;5016083;28;20021;-75
2020/12/30 02:35:24;;;;;;;14.15;8.45;;;4.20;99.90;;;;;;5014454;28;20391;-75
2020/12/30 02:37:50;;;;;;;19.35;10.07;;;4.20;99.90;;;;;;5030990;28;20510;-75
2020/12/30 02:40:17;;;;;;;22.25;10.50;;;4.10;99.90;;;;;;5014598;28;20053;-75
2020/12/30 02:42:43;;;;;;;16.40;8.60;;;4.10;99.90;;;;;;5014293;28;20041;-75
2020/12/30 02:45:09;;;;;;;18.88;9.48;;;4.10;99.90;;;;;;5014506;28;20022;-75
2020/12/30 02:47:35;;;;;;;18.33;9.13;;;4.10;99.90;;;;;;5032032;28;20027;-75
2020/12/30 02:50:02;;;;;;;16.70;8.52;;;4.10;99.90;;;;;;5015335;28;20427;-76
2020/12/30 02:52:28;;;;;;;19.20;8.48;;;4.10;99.90;;;;;;5033405;28;20030;-75
2020/12/30 02:54:54;;;;;;;14.82;6.88;;;4.10;99.90;;;;;;5015770;28;20120;-76
2020/12/30 02:57:20;;;;;;;18.75;8.80;;;4.10;99.90;;;;;;5014474;28;20021;-76
2020/12/30 02:59:46;;;;;;;15.88;7.40;;;4.10;99.90;;;;;;5015357;28;20422;-76
2020/12/30 03:02:12;;;;;;;11.43;5.82;;;4.10;99.90;;;;;;5015450;28;20033;-75
2020/12/30 03:04:37;;;;;;;4.43;3.55;;;4.00;99.90;;;;;;5032009;28;20386;-76
2020/12/30 03:07:03;;;;;;;10.75;5.03;;;4.00;99.90;;;;;;5015327;28;20029;-75
2020/12/30 03:09:29;;;;;;;5.95;3.95;;;3.90;99.90;;;;;;5015489;28;20022;-76
2020/12/30 03:11:55;;;;;;;6.22;4.18;;;3.90;99.90;;;;;;5015364;28;20025;-76
2020/12/30 03:14:21;;;;;;;6.35;4.05;;;4.00;99.90;;;;;;5015515;28;20028;-76
2020/12/30 03:16:47;;;;;;;8.10;4.32;;;4.00;99.90;;;;;;5032984;28;20068;-76
2020/12/30 03:19:13;;;;;;;6.20;5.10;;;4.00;99.90;;;;;;5015301;28;20479;-76
2020/12/30 03:21:39;;;;;;;11.32;5.65;;;4.00;99.90;;;;;;5032901;28;20036;-76
2020/12/30 03:24:04;;;;;;;7.65;5.05;;;4.00;99.90;;;;;;5015270;28;20029;-75
2020/12/30 03:26:32;;;;;;;7.45;4.80;;;3.90;99.90;;;;;;5015285;28;20049;-76
2020/12/30 03:29:01;;;;;;;7.30;4.53;;;4.00;99.90;;;;;;5032920;28;20175;-76
2020/12/30 03:31:30;;;;;;;10.15;5.05;;;4.00;99.90;;;;;;5015201;28;20025;-76
2020/12/30 03:33:57;;;;;;;9.10;5.85;;;3.90;99.90;;;;;;5014009;28;20368;-75
2020/12/30 03:36:24;;;;;;;9.05;6.22;;;3.90;99.90;;;;;;5032941;28;20022;-75
2020/12/30 03:38:50;;;;;;;7.82;5.40;;;3.90;99.90;;;;;;5015134;28;20455;-75
2020/12/30 03:41:16;;;;;;;9.40;6.00;;;3.90;99.90;;;;;;5014887;28;20120;-76
2020/12/30 03:43:41;;;;;;;8.32;5.07;;;3.90;99.90;;;;;;5015009;28;20112;-75
2020/12/30 03:46:07;;;;;;;10.30;5.53;;;3.90;99.90;;;;;;5015146;28;20117;-76
2020/12/30 03:48:33;;;;;;;10.57;5.40;;;3.90;99.90;;;;;;5015051;28;20033;-75
2020/12/30 03:50:58;;;;;;;6.53;3.90;;;3.80;99.90;;;;;;5015008;28;20024;-75
2020/12/30 03:53:25;;;;;;;6.68;4.07;;;3.80;99.90;;;;;;5031312;28;20037;-75
2020/12/30 03:55:51;;;;;;;4.50;3.38;;;3.80;99.90;;;;;;5014965;28;20021;-75
2020/12/30 03:58:16;;;;;;;5.30;3.35;;;3.80;99.90;;;;;;5014991;28;20431;-76
2020/12/30 04:00:42;;;;;;;6.18;3.17;;;3.80;99.90;;;;;;5014817;28;20018;-76
2020/12/30 04:03:07;;;;;;;5.65;3.90;;;3.80;99.90;;;;;;5014905;28;20018;-75
2020/12/30 04:05:33;;;;;;;7.82;3.20;;;3.80;99.90;;;;;;5032546;28;20025;-75
2020/12/30 04:07:59;;;;;;;4.32;3.20;;;3.80;99.90;;;;;;5014840;28;20617;-76
2020/12/30 04:10:24;;;;;;;4.30;2.92;;;3.80;99.90;;;;;;5032533;28;20482;-76
2020/12/30 04:12:50;;;;;;;4.28;2.65;;;3.80;99.90;;;;;;5032416;28;20025;-76
2020/12/30 04:15:16;;;;;;;5.65;3.42;;;3.80;99.90;;;;;;5014799;28;20064;-76
2020/12/30 04:17:42;;;;;;;4.18;2.85;;;3.70;99.90;;;;;;5014650;28;20030;-75
2020/12/30 04:20:08;;;;;;;5.72;4.07;;;3.70;99.90;;;;;;5014824;28;20505;-76
2020/12/30 04:22:33;;;;;;;4.13;3.42;;;3.70;99.90;;;;;;5014561;28;20061;-76
2020/12/30 04:24:59;;;;;;;5.80;3.60;;;3.70;99.90;;;;;;5014059;28;20048;-76
2020/12/30 04:27:24;;;;;;;7.18;4.07;;;3.70;99.90;;;;;;5031634;28;20025;-76
2020/12/30 04:29:50;;;;;;;7.03;4.63;;;3.70;99.90;;;;;;5030362;28;20032;-76
2020/12/30 04:32:16;;;;;;;10.38;5.68;;;3.70;99.90;;;;;;5013937;28;20108;-76
2020/12/30 04:34:41;;;;;;;14.38;5.25;;;3.70;99.90;;;;;;5030378;28;20367;-76
2020/12/30 04:37:07;;;;;;;17.05;7.07;;;3.70;99.90;;;;;;5013919;28;20363;-76
2020/12/30 04:39:33;;;;;;;11.77;6.03;;;3.70;99.90;;;;;;5014564;28;20057;-75
2020/12/30 04:42:00;;;;;;;12.65;5.18;;;3.60;99.90;;;;;;5032143;28;20040;-74
2020/12/30 04:44:32;;;;;;;6.93;4.30;;;3.60;99.90;;;;;;5033567;28;20041;-75
2020/12/30 04:46:59;;;;;;;6.55;3.83;;;3.60;99.90;;;;;;5018170;28;20446;-74
2020/12/30 04:49:26;;;;;;;8.05;4.72;;;3.60;99.90;;;;;;5018048;28;20379;-75
2020/12/30 04:51:55;;;;;;;14.70;6.47;;;3.60;99.90;;;;;;5017936;28;20499;-75
2020/12/30 04:54:21;;;;;;;11.60;6.95;;;3.60;99.90;;;;;;5018022;28;20026;-75
2020/12/30 04:57:02;;;;;;;15.88;7.78;;;3.60;99.90;;;;;;5035606;28;20055;-75
2020/12/30 04:59:40;;;;;;;17.95;8.68;;;3.60;99.90;;;;;;5017903;28;20526;-75
2020/12/30 05:02:08;;;;;;;9.30;4.93;;;3.60;99.90;;;;;;5017784;28;20037;-75
2020/12/30 05:04:36;;;;;;;12.82;6.30;;;3.60;99.90;;;;;;5017788;28;20025;-75
2020/12/30 05:07:13;;;;;;;8.02;5.55;;;3.60;99.90;;;;;;5035321;28;20107;-76
2020/12/30 05:09:42;;;;;;;7.07;5.13;;;3.50;99.90;;;;;;5035524;28;20044;-75
2020/12/30 05:12:19;;;;;;;7.57;5.57;;;3.50;99.90;;;;;;5031893;28;20025;-76
2020/12/30 05:14:45;;;;;;;15.43;6.95;;;3.50;99.90;;;;;;5037262;28;20552;-75
2020/12/30 05:17:13;;;;;;;82.93;33.83;;;3.50;99.90;;;;;;5037332;28;20144;-75
2020/12/30 05:19:39;;;;;;;240.93;90.25;;;3.50;99.90;;;;;;5037219;28;20028;-75
2020/12/30 05:22:05;;;;;;;204.73;80.03;;;3.60;99.90;;;;;;5037119;28;20403;-76
2020/12/30 05:24:32;;;;;;;786.78;355.48;;;3.60;99.90;;;;;;5037191;28;20483;-76
2020/12/30 05:26:58;;;;;;;468.70;182.98;;;3.60;99.90;;;;;;5037077;28;20029;-76
2020/12/30 05:29:25;;;;;;;81.10;35.85;;;3.60;99.90;;;;;;5037085;28;20025;-76
2020/12/30 05:31:55;;;;;;;17.45;8.18;;;3.70;99.90;;;;;;5051890;28;20013;-76
2020/12/30 05:34:22;;;;;;;15.32;6.97;;;3.60;99.90;;;;;;5032359;28;20040;-76
2020/12/30 05:36:49;;;;;;;12.15;6.75;;;3.60;99.90;;;;;;5015344;28;20017;-76
2020/12/30 05:39:29;;;;;;;13.10;7.68;;;3.60;99.90;;;;;;5016376;28;20017;-75
2020/12/30 05:42:16;;;;;;;16.45;8.63;;;3.60;99.90;;;;;;5033529;28;20034;-76
2020/12/30 05:44:43;;;;;;;10.52;5.93;;;3.60;99.90;;;;;;5016980;28;20029;-76
2020/12/30 05:47:09;;;;;;;10.48;5.35;;;3.70;99.90;;;;;;5016755;28;20021;-76
2020/12/30 05:49:35;;;;;;;10.00;5.78;;;3.70;99.90;;;;;;5033396;28;20112;-76
2020/12/30 05:52:11;;;;;;;7.95;4.97;;;3.70;99.90;;;;;;5016828;28;20045;-76
2020/12/30 05:54:36;;;;;;;9.80;5.30;;;3.70;99.90;;;;;;5016808;28;20025;-76
2020/12/30 05:57:22;;;;;;;12.70;6.45;;;3.70;99.90;;;;;;5016172;28;20032;-76
2020/12/30 05:59:49;;;;;;;10.00;5.88;;;3.80;99.90;;;;;;5034455;28;20028;-76
2020/12/30 06:02:15;;;;;;;7.97;5.32;;;3.70;99.90;;;;;;5034300;28;20037;-76
2020/12/30 06:04:41;;;;;;;15.52;8.15;;;3.80;99.90;;;;;;5016629;28;20391;-76
2020/12/30 06:07:13;;;;;;;13.32;6.80;;;3.80;99.90;;;;;;5034121;28;20036;-75
2020/12/30 06:09:39;;;;;;;11.88;7.18;;;3.90;99.90;;;;;;5016556;28;20509;-76
2020/12/30 06:12:07;;;;;;;10.52;5.63;;;3.80;99.90;;;;;;5034242;28;20026;-76
2020/12/30 06:14:34;;;;;;;12.93;6.50;;;3.90;99.90;;;;;;5016404;28;20037;-77
2020/12/30 06:17:01;;;;;;;9.05;4.95;;;3.90;99.90;;;;;;5016330;28;20033;-75
2020/12/30 06:19:27;;;;;;;9.82;6.25;;;3.90;99.90;;;;;;5016399;28;20022;-76
2020/12/30 06:21:53;;;;;;;13.00;6.30;;;3.80;99.90;;;;;;5045734;28;20033;-76
2020/12/30 06:24:19;;;;;;;10.98;6.50;;;3.80;99.90;;;;;;5035408;28;20553;-76
2020/12/30 06:26:44;;;;;;;11.48;6.22;;;3.90;99.90;;;;;;5051714;28;20115;-76
2020/12/30 06:29:12;;;;;;;11.05;6.93;;;3.80;99.90;;;;;;5052020;28;20021;-76
2020/12/30 06:31:48;;;;;;;11.20;7.72;;;3.80;99.90;;;;;;5053312;28;20083;-76
2020/12/30 06:34:17;;;;;;;12.95;7.22;;;3.80;99.90;;;;;;5035821;28;20109;-76
2020/12/30 06:36:44;;;;;;;12.35;8.13;;;3.80;99.90;;;;;;5019431;28;20154;-75
2020/12/30 06:39:21;;;;;;;15.63;8.77;;;3.80;99.90;;;;;;5034824;28;20021;-75
2020/12/30 06:42:01;;;;;;;15.48;7.95;;;3.80;99.90;;;;;;5033913;28;20336;-76
2020/12/30 06:44:43;;;;;;;18.38;8.98;;;3.80;99.90;;;;;;5050248;28;20028;-76
2020/12/30 06:47:14;;;;;;;23.58;10.25;;;3.70;99.90;;;;;;5051299;28;20036;-76
2020/12/30 06:49:40;;;;;;;19.70;9.95;;;3.70;99.90;;;;;;5033691;28;20029;-75
2020/12/30 06:52:27;;;;;;;23.20;10.52;;;3.70;99.90;;;;;;5051734;28;20036;-75
2020/12/30 06:54:53;;;;;;;21.17;10.70;;;3.70;99.90;;;;;;5052835;28;20032;-76
2020/12/30 06:57:39;;;;;;;20.27;10.45;;;3.70;99.90;;;;;;5028220;28;20021;-75
2020/12/30 07:00:26;;;;;;;23.73;11.70;;;3.60;99.90;;;;;;5034601;28;20034;-76
2020/12/30 07:03:14;;;;;;;24.23;13.80;;;3.60;99.90;;;;;;5028411;28;20041;-75
2020/12/30 07:05:40;;;;;;;19.48;12.57;;;3.60;99.90;;;;;;5024903;28;20029;-76
2020/12/30 07:08:06;;;;;;;26.42;13.02;;;3.50;99.90;;;;;;5022421;28;20444;-76
2020/12/30 07:10:38;;;;;;;33.00;14.85;;;3.50;99.90;;;;;;5033117;28;20107;-76
2020/12/30 07:13:04;;;;;;;25.17;13.13;;;3.50;99.90;;;;;;5022906;28;20032;-76
2020/12/30 07:15:30;;;;;;;29.17;14.82;;;3.50;99.90;;;;;;5019572;28;20017;-76
2020/12/30 07:17:55;;;;;;;27.98;14.10;;;3.50;99.90;;;;;;5050867;28;20045;-76
2020/12/30 07:20:24;;;;;;;28.70;15.30;;;3.50;99.90;;;;;;5050384;28;20450;-76
2020/12/30 07:22:50;;;;;;;35.38;18.98;;;3.50;99.90;;;;;;5032499;28;20052;-76
2020/12/30 07:25:17;;;;;;;47.88;24.45;;;3.50;99.90;;;;;;5033516;28;20438;-76
2020/12/30 07:27:43;;;;;;;49.25;24.23;;;3.50;99.90;;;;;;5033518;28;20017;-76
2020/12/30 07:30:09;;;;;;;28.50;15.60;;;3.60;99.90;;;;;;5033916;28;20039;-76
2020/12/30 07:32:35;;;;;;;24.63;12.07;;;3.60;99.90;;;;;;5034154;28;20032;-76
2020/12/30 07:35:01;;;;;;;23.50;12.93;;;3.60;99.90;;;;;;5041489;28;20029;-77
2020/12/30 07:37:27;;;;;;;29.67;15.32;;;3.60;99.90;;;;;;5038527;28;20619;-76
2020/12/30 07:39:53;;;;;;;29.73;14.90;;;3.60;99.90;;;;;;5052559;28;20028;-76
2020/12/30 07:42:23;;;;;;;24.45;14.00;;;3.60;99.90;;;;;;5034585;28;20040;-76
2020/12/30 07:44:54;;;;;;;27.55;13.77;;;3.60;99.90;;;;;;5031681;28;20387;-76
2020/12/30 07:47:23;;;;;;;37.80;17.55;;;3.70;99.90;;;;;;5052129;28;20053;-76
2020/12/30 07:49:49;;;;;;;171.55;66.20;;;3.70;99.90;;;;;;5034839;28;20104;-76
2020/12/30 07:52:15;;;;;;;216.35;83.10;;;3.70;99.90;;;;;;5034602;28;20119;-76
2020/12/30 07:54:41;;;;;;;108.63;47.55;;;3.80;99.90;;;;;;5034005;28;20111;-76
2020/12/30 07:57:11;;;;;;;75.28;35.28;;;3.90;99.90;;;;;;5035501;28;20123;-76
2020/12/30 07:59:40;;;;;;;82.88;36.30;;;3.90;99.90;;;;;;5034357;28;20021;-77
2020/12/30 08:02:07;;;;;;;38.58;19.10;;;3.90;99.90;;;;;;5051614;28;20033;-76
2020/12/30 08:04:34;;;;;;;27.70;15.48;;;3.90;99.90;;;;;;5034614;28;20033;-76
2020/12/30 08:07:05;;;;;;;41.72;17.02;;;4.00;99.90;;;;;;5034227;28;20501;-76
2020/12/30 08:09:33;;;;;;;31.42;16.13;;;4.00;99.90;;;;;;5031126;28;20131;-76
2020/12/30 08:12:04;;;;;;;31.20;15.93;;;4.00;99.90;;;;;;5051839;28;20021;-76
2020/12/30 08:14:31;;;;;;;24.38;14.13;;;4.00;99.90;;;;;;5050408;28;20021;-76
2020/12/30 08:17:00;;;;;;;26.67;14.50;;;4.10;99.90;;;;;;5033923;28;20475;-76
2020/12/30 08:19:32;;;;;;;133.80;57.08;;;4.10;99.90;;;;;;5053788;28;20025;-76
2020/12/30 08:22:02;;;;;;;65.75;31.50;;;4.00;99.90;;;;;;5038125;28;20067;-76
2020/12/30 08:24:31;;;;;;;53.13;27.92;;;4.10;99.90;;;;;;5031157;28;20079;-77
2020/12/30 08:26:57;;;;;;;40.30;21.45;;;4.10;99.90;;;;;;5042475;28;20493;-77
2020/12/30 08:29:31;;;;;;;27.85;15.93;;;4.10;99.90;;;;;;5023230;28;20104;-77
2020/12/30 08:32:00;;;;;;;23.67;14.18;;;4.10;99.90;;;;;;5030658;28;20079;-77
2020/12/30 08:34:32;;;;;;;34.65;17.17;;;4.20;99.90;;;;;;5031514;28;20104;-77
2020/12/30 08:37:22;;;;;;;33.53;18.33;;;4.10;99.90;;;;;;5010012;28;20048;-77
2020/12/30 08:40:14;;;;;;;34.33;17.08;;;4.20;99.90;;;;;;5031547;28;20030;-76
2020/12/30 08:42:52;;;;;;;33.60;16.33;;;4.20;99.90;;;;;;5024445;28;20029;-76
2020/12/30 08:45:35;;;;;;;34.95;17.23;;;4.20;99.90;;;;;;5022323;28;20549;-77
2020/12/30 08:48:14;;;;;;;40.90;22.08;;;4.20;99.90;;;;;;5038101;28;20033;-77
2020/12/30 08:50:41;;;;;;;52.72;24.33;;;4.20;99.90;;;;;;5039457;28;20611;-77
2020/12/30 08:53:07;;;;;;;45.17;22.45;;;4.20;99.90;;;;;;5041253;28;20028;-76
2020/12/30 08:55:32;;;;;;;38.85;19.88;;;4.20;99.90;;;;;;5038321;28;20017;-76
2020/12/30 08:57:59;;;;;;;41.75;20.67;;;4.20;99.90;;;;;;5023519;28;20435;-77
2020/12/30 09:00:26;;;;;;;42.20;21.00;;;4.20;99.90;;;;;;5022576;28;20026;-78
2020/12/30 09:03:17;;;;;;;48.05;22.98;;;4.10;99.90;;;;;;5038051;28;20482;-77
2020/12/30 09:05:54;;;;;;;46.88;24.98;;;4.20;99.90;;;;;;5015912;28;20017;-77
2020/12/30 09:08:24;;;;;;;47.60;23.40;;;4.10;99.90;;;;;;5016448;28;20076;-78
2020/12/30 09:10:50;;;;;;;38.95;21.95;;;4.20;99.90;;;;;;5017115;28;20025;-77
2020/12/30 09:13:24;;;;;;;42.22;22.20;;;4.20;99.90;;;;;;5017303;28;20028;-77
2020/12/30 09:15:54;;;;;;;46.97;25.10;;;4.20;99.90;;;;;;5017855;28;20018;-77
2020/12/30 09:18:22;;;;;;;59.67;33.42;;;4.20;99.90;;;;;;5017455;28;20029;-77
2020/12/30 09:20:48;;;;;;;66.82;34.08;;;4.20;99.90;;;;;;5017417;28;20028;-77
2020/12/30 09:23:14;;;;;;;56.70;29.30;;;4.20;99.90;;;;;;5035062;28;20041;-77
2020/12/30 09:25:40;;;;;;;85.80;45.15;;;4.30;99.90;;;;;;5016711;28;20483;-77
2020/12/30 09:28:17;;;;;;;79.82;38.58;;;4.30;99.90;;;;;;5017197;28;20021;-77
2020/12/30 09:30:43;;;;;;;158.30;64.22;;;4.30;99.90;;;;;;5020298;28;20028;-77
2020/12/30 09:33:17;;;;;;;56.15;28.13;;;4.30;99.90;;;;;;5036954;28;20021;-76
2020/12/30 09:35:44;;;;;;;36.85;19.63;;;4.30;99.90;;;;;;5036956;28;20017;-77
2020/12/30 09:38:19;;;;;;;35.70;19.13;;;4.40;99.90;;;;;;5036815;28;20013;-76
2020/12/30 09:40:47;;;;;;;37.45;19.33;;;4.30;99.90;;;;;;5036386;28;20021;-78
2020/12/30 09:43:17;;;;;;;36.72;19.15;;;4.30;99.90;;;;;;5036657;28;20032;-77
2020/12/30 09:45:43;;;;;;;78.70;36.72;;;4.30;99.90;;;;;;5036740;28;20509;-77
2020/12/30 09:48:11;;;;;;;75.07;34.50;;;4.40;99.90;;;;;;5042771;28;20072;-77
2020/12/30 09:50:37;;;;;;;54.75;26.70;;;4.40;99.90;;;;;;5017638;28;20023;-77
2020/12/30 09:53:03;;;;;;;177.48;80.15;;;4.50;99.90;;;;;;5034536;28;20422;-77
2020/12/30 09:55:28;;;;;;;121.32;65.03;;;4.50;99.90;;;;;;5016214;28;20121;-77
2020/12/30 09:57:54;;;;;;;45.38;26.42;;;4.50;99.90;;;;;;5016630;28;20033;-77
2020/12/30 10:00:20;;;;;;;122.95;52.63;;;4.50;99.90;;;;;;5018501;28;20024;-77
2020/12/30 10:02:45;;;;;;;62.38;31.08;;;4.50;99.90;;;;;;5036260;28;20032;-77
2020/12/30 10:05:11;;;;;;;78.90;37.35;;;4.60;99.90;;;;;;5054049;28;20028;-77
2020/12/30 10:07:36;;;;;;;71.05;35.45;;;4.50;99.90;;;;;;5036056;28;20043;-77
2020/12/30 10:10:02;;;;;;;84.45;44.22;;;4.50;99.90;;;;;;5035406;28;20502;-77
2020/12/30 10:12:28;;;;;;;100.05;52.85;;;4.50;99.90;;;;;;5054031;28;20048;-76
2020/12/30 10:14:54;;;;;;;39.17;23.25;;;4.60;99.90;;;;;;5036220;28;20068;-76
2020/12/30 10:17:19;;;;;;;42.38;25.90;;;4.60;99.90;;;;;;5035835;28;20033;-76
2020/12/30 10:19:45;;;;;;;42.88;24.40;;;4.60;99.90;;;;;;5034047;28;20554;-77
2020/12/30 10:22:12;;;;;;;45.70;25.08;;;4.70;99.90;;;;;;5034120;28;20047;-76
2020/12/30 10:24:44;;;;;;;68.78;31.52;;;4.70;99.90;;;;;;5036004;28;20021;-76
2020/12/30 10:27:12;;;;;;;35.65;19.08;;;4.70;99.90;;;;;;5036019;28;20067;-77
2020/12/30 10:29:38;;;;;;;30.55;16.38;;;4.80;99.90;;;;;;5034898;28;20021;-77
2020/12/30 10:32:04;;;;;;;91.68;30.88;;;4.80;99.90;;;;;;5053728;28;20079;-76
2020/12/30 10:34:29;;;;;;;108.20;34.35;;;4.80;99.90;;;;;;5035821;28;20025;-77
2020/12/30 10:36:55;;;;;;;98.85;33.03;;;4.80;99.90;;;;;;5034830;28;20017;-76
2020/12/30 10:39:21;;;;;;;83.97;29.90;;;4.80;99.90;;;;;;5052087;28;20043;-77
2020/12/30 10:41:46;;;;;;;87.60;34.47;;;4.80;99.90;;;;;;5035183;28;20398;-78
2020/12/30 10:44:12;;;;;;;84.53;31.52;;;4.90;99.90;;;;;;5053267;28;20382;-77
2020/12/30 10:46:37;;;;;;;150.80;57.10;;;5.00;99.90;;;;;;5035613;28;20051;-77
2020/12/30 10:49:03;;;;;;;72.80;28.85;;;5.00;99.90;;;;;;5053266;28;20032;-76
2020/12/30 10:51:29;;;;;;;73.32;29.20;;;5.00;99.90;;;;;;5053410;28;20013;-77
2020/12/30 10:53:54;;;;;;;59.13;26.95;;;5.00;99.90;;;;;;5036441;28;20021;-77
2020/12/30 10:56:20;;;;;;;48.85;24.27;;;5.00;99.90;;;;;;5053603;28;20032;-77
2020/12/30 10:58:46;;;;;;;34.78;21.98;;;5.00;99.90;;;;;;5029788;28;20028;-75
2020/12/30 11:01:13;;;;;;;32.30;18.00;;;5.00;99.90;;;;;;5031137;28;20112;-75
2020/12/30 11:03:40;;;;;;;28.98;16.67;;;5.00;99.90;;;;;;5021021;28;20028;-75
2020/12/30 11:06:08;;;;;;;38.67;20.08;;;5.00;99.90;;;;;;5014393;28;20045;-75
2020/12/30 11:08:34;;;;;;;53.55;24.67;;;5.00;99.90;;;;;;5015504;28;20479;-74
2020/12/30 11:11:01;;;;;;;52.00;26.00;;;5.00;99.90;;;;;;5015109;28;20479;-75
2020/12/30 11:13:27;;;;;;;96.15;42.22;;;5.10;99.90;;;;;;5014873;28;20071;-75
2020/12/30 11:15:53;;;;;;;108.75;53.33;;;5.00;99.90;;;;;;5033142;28;20025;-75
2020/12/30 11:18:19;;;;;;;135.18;61.67;;;5.10;99.90;;;;;;5033085;28;20025;-75
2020/12/30 11:20:46;;;;;;;137.88;65.40;;;5.10;99.90;;;;;;5022371;28;20032;-76
2020/12/30 11:23:12;;;;;;;119.03;53.13;;;5.10;99.90;;;;;;5034952;28;20032;-75
2020/12/30 11:25:40;;;;;;;197.38;78.75;;;5.10;99.90;;;;;;5034985;28;20013;-76
2020/12/30 11:28:05;;;;;;;222.48;84.10;;;5.00;99.90;;;;;;5034445;28;20021;-74
2020/12/30 11:30:31;;;;;;;225.50;92.07;;;5.00;99.90;;;;;;5034965;28;20588;-75
2020/12/30 11:32:57;;;;;;;213.10;84.80;;;5.00;99.90;;;;;;5034566;28;20033;-75
2020/12/30 11:35:24;;;;;;;224.68;89.47;;;4.90;99.90;;;;;;5034896;28;20016;-75
2020/12/30 11:37:50;;;;;;;185.05;72.53;;;5.00;99.90;;;;;;5052716;28;20029;-75
2020/12/30 11:40:16;;;;;;;152.35;59.03;;;4.90;99.90;;;;;;5034871;28;20031;-75
2020/12/30 11:42:41;;;;;;;141.57;60.15;;;4.90;99.90;;;;;;5034562;28;20163;-75
2020/12/30 11:45:08;;;;;;;155.77;61.83;;;4.90;99.90;;;;;;5033823;28;20059;-76
2020/12/30 11:47:33;;;;;;;147.48;62.28;;;4.80;99.90;;;;;;5023494;28;20029;-75
2020/12/30 11:49:59;;;;;;;128.38;50.33;;;4.90;99.90;;;;;;5031623;28;20361;-75
2020/12/30 11:52:25;;;;;;;139.35;56.22;;;4.80;99.90;;;;;;5038660;28;20374;-75
2020/12/30 11:54:51;;;;;;;111.88;40.95;;;4.80;99.90;;;;;;5036672;28;20029;-75
2020/12/30 11:57:16;;;;;;;123.53;47.20;;;4.80;99.90;;;;;;5037617;28;20387;-75
2020/12/30 11:59:42;;;;;;;69.72;31.40;;;4.80;99.90;;;;;;5056575;28;20079;-76
2020/12/30 12:02:08;;;;;;;81.40;31.63;;;4.80;99.90;;;;;;5038660;28;20029;-76
2020/12/30 12:04:34;;;;;;;69.97;29.83;;;4.70;99.90;;;;;;5056665;28;20025;-75
2020/12/30 12:07:01;;;;;;;72.90;30.63;;;4.70;99.90;;;;;;5056297;28;20025;-75
2020/12/30 12:09:27;;;;;;;82.90;32.95;;;4.70;99.90;;;;;;5038549;28;20024;-74
2020/12/30 12:11:57;;;;;;;73.97;29.92;;;4.70;99.90;;;;;;5037984;28;20013;-75
2020/12/30 12:14:23;;;;;;;71.72;29.08;;;4.60;99.90;;;;;;5056324;28;20036;-76
2020/12/30 12:16:53;;;;;;;65.75;26.85;;;4.60;99.90;;;;;;5045135;28;20415;-75
2020/12/30 12:19:18;;;;;;;65.75;26.48;;;4.50;99.90;;;;;;5036201;28;20414;-77
2020/12/30 12:21:44;;;;;;;66.03;28.17;;;4.50;99.90;;;;;;5032336;28;20048;-76
2020/12/30 12:24:11;;;;;;;52.13;22.73;;;4.50;99.90;;;;;;5046059;28;20025;-76
2020/12/30 12:26:37;;;;;;;61.60;26.50;;;4.40;99.90;;;;;;5055469;28;20032;-76
2020/12/30 12:29:38;;;;;;;49.83;21.65;;;4.40;99.90;;;;;;5037355;28;20386;-76
2020/12/30 12:32:04;;;;;;;47.33;20.05;;;4.40;99.90;;;;;;5037146;28;20033;-76
2020/12/30 12:34:31;;;;;;;42.45;19.48;;;4.40;99.90;;;;;;5034114;28;20095;-76
2020/12/30 12:36:57;;;;;;;64.75;28.17;;;4.40;99.90;;;;;;5031405;28;20029;-76
2020/12/30 12:39:23;;;;;;;43.55;19.35;;;4.30;99.90;;;;;;5028370;28;20025;-76
2020/12/30 12:41:56;;;;;;;31.67;15.43;;;4.30;99.90;;;;;;5052702;28;20035;-76
2020/12/30 12:44:23;;;;;;;47.55;20.55;;;4.30;99.90;;;;;;5035721;28;20048;-77
2020/12/30 12:46:48;;;;;;;46.17;21.67;;;4.30;99.90;;;;;;5037062;28;20029;-77